LEVCENSB

Guest
Details From LEVC - Valencia
To ENSB - Svalbard Longyear
Flight Number -
Tags Generated
Created
Modified
Stats Distance 2,361 nm / 4,372 km
Max Altitude 0 ft / 0 m
Waypoints 7
Social Downloads 1
Likes 0
Share VATSIM

Download

Looking for another format? Having issues loading an existing format? Contact us
Advertisement - Login to hide

Notes

Generated

Route

LEVC TAN PEPAX LYD07 EDURA LON ENSB

ID Type Via Altitude Latitude Longitude Leg Dist Tot Dist Heading (true) Name
O LEVC APT - 0 ft / 0 m 39.49655˚ -0.50070˚ - 0 nm - -
TAN VOR - 0 ft / 0 m 43.46667˚ -0.01842˚ 239 nm 239 nm 5° / 5° LAHITTE VOR
PEPAX FIX - 0 ft / 0 m 47.08139˚ 0.45250˚ 217 nm 457 nm 5° / 5° -
LYD07 FIX - 0 ft / 0 m 50.97833˚ 1.04083˚ 235 nm 692 nm 5° / 6° -
EDURA FIX - 0 ft / 0 m 63.00000˚ 3.71722˚ 727 nm 1419 nm 6° / 8° -
LON NDB - 0 ft / 0 m 78.24973˚ 15.40121˚ 940 nm 2360 nm 9° / 20° LONGYEAR NDB
O ENSB APT - 0 ft / 0 m 78.24879˚ 15.41805˚ 0 nm 2360 nm 105° / 105° -

Altitude Profile

Advertisement - Login to hide

Weather


0- 5 10 15 20 25 30 35+ Temperature / ° C

Clouds and Precipitation
Forecast for 2017-12-14 18:00 UTC. Updated 2 hours ago

Ground ~20,000 ft ~40,000 ft Winds

LEVC

Details ICAO LEVC (VLC)
Name Valencia
Region Spain
Timezone Europe/Madrid (UTC+1.0)
Stats Elevation 225 ft / 69 m (AMSL)
Location 39.488236° -0.483892°
Runways 2
Magnetic Variation 0.192° E

METAR

LEVC 141830Z 27017KT 9999 FEW025 15/08 Q1015 NOSIG

Decode

TAF

TAF LEVC 141700Z 1418/1518 26014KT 9999 FEW025 TX19/1513Z TN08/1506Z TEMPO 1509/1512 28020G35KT

Decode

Departure Runways

ID Width Length Bearing (true) Bearing (mag) Surface Threshold Offset Overrun Length
12 148 ft / 45 m 10,555 ft / 3,217 m 116.25° 116.06° Asphalt 0 ft / 0 m 646 ft / 197 m
22 154 ft / 47 m 3,828 ft / 1,167 m 217.99° 217.80° Asphalt 0 ft / 0 m 0 ft / 0 m
30 148 ft / 45 m 10,555 ft / 3,217 m 296.27° 296.08° Asphalt 1,001 ft / 305 m 932 ft / 284 m
4 154 ft / 47 m 3,828 ft / 1,167 m 37.98° 37.79° Asphalt 0 ft / 0 m 0 ft / 0 m

ENSB

Details ICAO ENSB (LYR)
Name Svalbard Longyear
Region Norway
Timezone Arctic/Longyearbyen (UTC+1.0)
Stats Elevation 88 ft / 27 m (AMSL)
Location 78.246037° 15.467196°
Runways 1
Magnetic Variation 8.852° E

METAR

ENSB 141750Z 11015KT 9999 FEW035 M06/M12 Q0999 RMK WIND 1400FT 08016KT

Decode

TAF

TAF ENSB 141700Z 1418/1518 12015KT 9999 SCT035

Decode

Destination Runways

ID Width Length Bearing (true) Bearing (mag) Surface Threshold Offset Overrun Length
10 148 ft / 45 m 7,578 ft / 2,310 m 105.32° 96.47° Asphalt 199 ft / 61 m 0 ft / 0 m
28 148 ft / 45 m 7,578 ft / 2,310 m 285.42° 276.57° Asphalt 395 ft / 120 m 0 ft / 0 m

Approach Navaids

Runway Type Ident Frequency Range Bearing (true) Bearing (mag) Slope Elevation
10 Localiser LB 110.30 MHz 18 nm / 33 km 105.42° 96.57° - 111 ft / 34 m (AMSL)
10 Glidescope LB 110.30 MHz 10 nm / 19 km 105.37° 96.51° 3.00° 88 ft / 27 m (AMSL)
28 Localiser LA 109.50 MHz 18 nm / 33 km 302.89° 294.04° - 153 ft / 47 m (AMSL)